sensor_id;sensor_type;location;lat;lon;timestamp;temperature;humidity
14735;DHT22;7458;49.002;8.472;2022-09-09T00:00:59;18.00;99.90
14735;DHT22;7458;49.002;8.472;2022-09-09T00:13:27;17.90;99.90
14735;DHT22;7458;49.002;8.472;2022-09-09T00:16:15;17.90;99.90
14735;DHT22;7458;49.002;8.472;2022-09-09T00:19:20;18.00;99.90
14735;DHT22;7458;49.002;8.472;2022-09-09T00:22:20;18.00;99.90
14735;DHT22;7458;49.002;8.472;2022-09-09T00:25:10;18.20;99.90
14735;DHT22;7458;49.002;8.472;2022-09-09T00:27:46;18.20;99.90
14735;DHT22;7458;49.002;8.472;2022-09-09T00:30:22;18.20;99.90
14735;DHT22;7458;49.002;8.472;2022-09-09T00:32:58;18.20;99.90
14735;DHT22;7458;49.002;8.472;2022-09-09T00:35:31;18.30;99.90
14735;DHT22;7458;49.002;8.472;2022-09-09T00:41:25;18.30;99.90
14735;DHT22;7458;49.002;8.472;2022-09-09T00:44:19;18.20;99.90
14735;DHT22;7458;49.002;8.472;2022-09-09T00:56:26;18.10;99.90
14735;DHT22;7458;49.002;8.472;2022-09-09T00:59:22;18.10;99.90
14735;DHT22;7458;49.002;8.472;2022-09-09T01:01:56;18.10;99.90
14735;DHT22;7458;49.002;8.472;2022-09-09T01:04:30;18.10;99.90
14735;DHT22;7458;49.002;8.472;2022-09-09T01:07:13;18.10;99.90
14735;DHT22;7458;49.002;8.472;2022-09-09T01:09:55;18.10;99.90
14735;DHT22;7458;49.002;8.472;2022-09-09T01:12:42;18.10;99.90
14735;DHT22;7458;49.002;8.472;2022-09-09T01:15:18;18.10;99.90
14735;DHT22;7458;49.002;8.472;2022-09-09T01:18:07;18.10;99.90
14735;DHT22;7458;49.002;8.472;2022-09-09T01:21:16;18.00;99.90
14735;DHT22;7458;49.002;8.472;2022-09-09T01:26:50;18.00;99.90
14735;DHT22;7458;49.002;8.472;2022-09-09T01:29:21;18.00;99.90
14735;DHT22;7458;49.002;8.472;2022-09-09T01:32:00;18.00;99.90
14735;DHT22;7458;49.002;8.472;2022-09-09T01:34:46;17.90;99.90
14735;DHT22;7458;49.002;8.472;2022-09-09T01:37:12;18.00;99.90
14735;DHT22;7458;49.002;8.472;2022-09-09T01:39:42;18.00;99.90
14735;DHT22;7458;49.002;8.472;2022-09-09T01:42:13;17.90;99.90
14735;DHT22;7458;49.002;8.472;2022-09-09T01:44:41;17.90;99.90
14735;DHT22;7458;49.002;8.472;2022-09-09T01:47:07;17.80;99.90
14735;DHT22;7458;49.002;8.472;2022-09-09T01:49:33;17.80;99.90
14735;DHT22;7458;49.002;8.472;2022-09-09T01:52:01;17.70;99.90
14735;DHT22;7458;49.002;8.472;2022-09-09T01:54:29;17.60;99.90
14735;DHT22;7458;49.002;8.472;2022-09-09T01:57:21;17.60;99.90
14735;DHT22;7458;49.002;8.472;2022-09-09T02:00:00;17.50;99.90
14735;DHT22;7458;49.002;8.472;2022-09-09T02:05:37;17.40;99.90
14735;DHT22;7458;49.002;8.472;2022-09-09T02:08:20;17.30;99.90
14735;DHT22;7458;49.002;8.472;2022-09-09T02:13:27;17.20;99.90
14735;DHT22;7458;49.002;8.472;2022-09-09T02:16:07;17.20;99.90
14735;DHT22;7458;49.002;8.472;2022-09-09T02:18:45;17.10;99.90
14735;DHT22;7458;49.002;8.472;2022-09-09T02:21:17;17.10;99.90
14735;DHT22;7458;49.002;8.472;2022-09-09T02:23:45;17.10;99.90
14735;DHT22;7458;49.002;8.472;2022-09-09T02:26:18;17.10;99.90
14735;DHT22;7458;49.002;8.472;2022-09-09T02:28:50;17.10;99.90
14735;DHT22;7458;49.002;8.472;2022-09-09T02:31:20;17.20;99.90
14735;DHT22;7458;49.002;8.472;2022-09-09T02:33:56;17.20;99.90
14735;DHT22;7458;49.002;8.472;2022-09-09T02:36:27;17.20;99.90
14735;DHT22;7458;49.002;8.472;2022-09-09T02:38:58;17.20;99.90
14735;DHT22;7458;49.002;8.472;2022-09-09T02:41:31;17.20;99.90
14735;DHT22;7458;49.002;8.472;2022-09-09T02:43:59;17.20;99.90
14735;DHT22;7458;49.002;8.472;2022-09-09T02:52:19;17.30;99.90
14735;DHT22;7458;49.002;8.472;2022-09-09T02:54:57;17.30;99.90
14735;DHT22;7458;49.002;8.472;2022-09-09T02:57:30;17.20;99.90
14735;DHT22;7458;49.002;8.472;2022-09-09T02:59:59;17.20;99.90
14735;DHT22;7458;49.002;8.472;2022-09-09T03:02:26;17.30;99.90
14735;DHT22;7458;49.002;8.472;2022-09-09T03:04:51;17.20;99.90
14735;DHT22;7458;49.002;8.472;2022-09-09T03:07:18;17.20;99.90
14735;DHT22;7458;49.002;8.472;2022-09-09T03:09:44;17.30;99.90
14735;DHT22;7458;49.002;8.472;2022-09-09T03:12:11;17.30;99.90
14735;DHT22;7458;49.002;8.472;2022-09-09T03:14:37;17.30;99.90
14735;DHT22;7458;49.002;8.472;2022-09-09T03:17:05;17.30;99.90
14735;DHT22;7458;49.002;8.472;2022-09-09T03:19:31;17.30;99.90
14735;DHT22;7458;49.002;8.472;2022-09-09T03:22:00;17.40;99.90
14735;DHT22;7458;49.002;8.472;2022-09-09T03:24:25;17.40;99.90
14735;DHT22;7458;49.002;8.472;2022-09-09T03:26:51;17.40;99.90
14735;DHT22;7458;49.002;8.472;2022-09-09T03:29:17;17.40;99.90
14735;DHT22;7458;49.002;8.472;2022-09-09T03:31:44;17.40;99.90
14735;DHT22;7458;49.002;8.472;2022-09-09T03:34:10;17.30;99.90
14735;DHT22;7458;49.002;8.472;2022-09-09T03:36:36;17.30;99.90
14735;DHT22;7458;49.002;8.472;2022-09-09T03:39:02;17.30;99.90
14735;DHT22;7458;49.002;8.472;2022-09-09T03:41:29;17.30;99.90
14735;DHT22;7458;49.002;8.472;2022-09-09T03:43:55;17.20;99.90
14735;DHT22;7458;49.002;8.472;2022-09-09T03:46:23;17.20;99.90
14735;DHT22;7458;49.002;8.472;2022-09-09T03:48:51;17.20;99.90
14735;DHT22;7458;49.002;8.472;2022-09-09T03:51:18;17.10;99.90
14735;DHT22;7458;49.002;8.472;2022-09-09T03:53:44;17.10;99.90
14735;DHT22;7458;49.002;8.472;2022-09-09T03:56:10;17.00;99.90
14735;DHT22;7458;49.002;8.472;2022-09-09T03:58:39;17.00;99.90
14735;DHT22;7458;49.002;8.472;2022-09-09T04:01:12;16.90;99.90
14735;DHT22;7458;49.002;8.472;2022-09-09T04:03:40;16.90;99.90
14735;DHT22;7458;49.002;8.472;2022-09-09T04:06:07;16.90;99.90
14735;DHT22;7458;49.002;8.472;2022-09-09T04:08:35;16.90;99.90
14735;DHT22;7458;49.002;8.472;2022-09-09T04:11:02;16.90;99.90
14735;DHT22;7458;49.002;8.472;2022-09-09T04:13:32;16.90;99.90
14735;DHT22;7458;49.002;8.472;2022-09-09T04:16:00;16.90;99.90
14735;DHT22;7458;49.002;8.472;2022-09-09T04:18:29;16.90;99.90
14735;DHT22;7458;49.002;8.472;2022-09-09T04:20:56;17.00;99.90
14735;DHT22;7458;49.002;8.472;2022-09-09T04:23:27;17.00;99.90
14735;DHT22;7458;49.002;8.472;2022-09-09T04:25:57;17.10;99.90
14735;DHT22;7458;49.002;8.472;2022-09-09T04:28:27;17.10;99.90
14735;DHT22;7458;49.002;8.472;2022-09-09T04:30:55;17.10;99.90
14735;DHT22;7458;49.002;8.472;2022-09-09T04:33:23;17.20;99.90
14735;DHT22;7458;49.002;8.472;2022-09-09T04:35:52;17.30;99.90
14735;DHT22;7458;49.002;8.472;2022-09-09T04:38:19;17.20;99.90
14735;DHT22;7458;49.002;8.472;2022-09-09T04:40:49;17.30;99.90
14735;DHT22;7458;49.002;8.472;2022-09-09T04:43:17;17.30;99.90
14735;DHT22;7458;49.002;8.472;2022-09-09T04:45:49;17.30;99.90
14735;DHT22;7458;49.002;8.472;2022-09-09T04:48:17;17.40;99.90
14735;DHT22;7458;49.002;8.472;2022-09-09T04:50:43;17.30;99.90
14735;DHT22;7458;49.002;8.472;2022-09-09T04:53:09;17.40;99.90
14735;DHT22;7458;49.002;8.472;2022-09-09T04:55:35;17.30;99.90
14735;DHT22;7458;49.002;8.472;2022-09-09T04:58:05;17.40;99.90
14735;DHT22;7458;49.002;8.472;2022-09-09T05:00:34;17.40;99.90
14735;DHT22;7458;49.002;8.472;2022-09-09T05:03:05;17.50;99.90
14735;DHT22;7458;49.002;8.472;2022-09-09T05:05:32;17.50;99.90
14735;DHT22;7458;49.002;8.472;2022-09-09T05:08:05;17.50;99.90
14735;DHT22;7458;49.002;8.472;2022-09-09T05:10:35;17.60;99.90
14735;DHT22;7458;49.002;8.472;2022-09-09T05:13:02;17.60;99.90
14735;DHT22;7458;49.002;8.472;2022-09-09T05:15:29;17.60;99.90
14735;DHT22;7458;49.002;8.472;2022-09-09T05:18:01;17.60;99.90
14735;DHT22;7458;49.002;8.472;2022-09-09T05:20:28;17.70;99.90
14735;DHT22;7458;49.002;8.472;2022-09-09T05:22:54;17.70;99.90
14735;DHT22;7458;49.002;8.472;2022-09-09T05:25:22;17.70;99.90
14735;DHT22;7458;49.002;8.472;2022-09-09T05:27:50;17.70;99.90
14735;DHT22;7458;49.002;8.472;2022-09-09T05:30:16;17.80;99.90
14735;DHT22;7458;49.002;8.472;2022-09-09T05:32:44;17.80;99.90
14735;DHT22;7458;49.002;8.472;2022-09-09T05:35:10;17.90;99.90
14735;DHT22;7458;49.002;8.472;2022-09-09T05:37:35;17.90;99.90
14735;DHT22;7458;49.002;8.472;2022-09-09T05:40:01;17.90;99.90
14735;DHT22;7458;49.002;8.472;2022-09-09T05:42:31;17.90;99.90
14735;DHT22;7458;49.002;8.472;2022-09-09T05:44:57;17.90;99.90
14735;DHT22;7458;49.002;8.472;2022-09-09T05:47:23;18.00;99.90
14735;DHT22;7458;49.002;8.472;2022-09-09T05:49:49;18.10;99.90
14735;DHT22;7458;49.002;8.472;2022-09-09T05:52:15;18.10;99.90
14735;DHT22;7458;49.002;8.472;2022-09-09T05:54:41;18.10;99.90
14735;DHT22;7458;49.002;8.472;2022-09-09T05:57:08;18.20;99.90
14735;DHT22;7458;49.002;8.472;2022-09-09T05:59:34;18.20;99.90
14735;DHT22;7458;49.002;8.472;2022-09-09T06:01:59;18.60;99.90
14735;DHT22;7458;49.002;8.472;2022-09-09T06:04:25;20.50;99.90
14735;DHT22;7458;49.002;8.472;2022-09-09T06:06:51;22.60;99.90
14735;DHT22;7458;49.002;8.472;2022-09-09T06:09:17;24.30;99.90
14735;DHT22;7458;49.002;8.472;2022-09-09T06:11:43;25.50;97.40
14735;DHT22;7458;49.002;8.472;2022-09-09T06:14:09;25.30;94.20
14735;DHT22;7458;49.002;8.472;2022-09-09T06:16:35;24.50;94.20
14735;DHT22;7458;49.002;8.472;2022-09-09T06:19:03;23.50;95.90
14735;DHT22;7458;49.002;8.472;2022-09-09T06:21:33;22.60;97.50
14735;DHT22;7458;49.002;8.472;2022-09-09T06:24:04;21.90;98.90
14735;DHT22;7458;49.002;8.472;2022-09-09T06:26:37;21.70;99.90
14735;DHT22;7458;49.002;8.472;2022-09-09T06:29:07;21.40;99.90
14735;DHT22;7458;49.002;8.472;2022-09-09T06:31:35;21.00;99.90
14735;DHT22;7458;49.002;8.472;2022-09-09T06:34:04;20.80;99.90
14735;DHT22;7458;49.002;8.472;2022-09-09T06:36:33;20.40;99.90
14735;DHT22;7458;49.002;8.472;2022-09-09T06:39:01;20.30;99.90
14735;DHT22;7458;49.002;8.472;2022-09-09T06:41:29;20.20;99.90
14735;DHT22;7458;49.002;8.472;2022-09-09T06:43:56;20.10;99.90
14735;DHT22;7458;49.002;8.472;2022-09-09T06:46:24;20.10;99.90
14735;DHT22;7458;49.002;8.472;2022-09-09T06:48:56;20.30;99.90
14735;DHT22;7458;49.002;8.472;2022-09-09T06:51:31;20.50;99.90
14735;DHT22;7458;49.002;8.472;2022-09-09T06:54:00;20.90;99.90
14735;DHT22;7458;49.002;8.472;2022-09-09T06:56:32;22.60;99.90
14735;DHT22;7458;49.002;8.472;2022-09-09T06:59:03;24.10;99.60
14735;DHT22;7458;49.002;8.472;2022-09-09T07:01:32;24.00;97.00
14735;DHT22;7458;49.002;8.472;2022-09-09T07:03:59;23.10;97.90
14735;DHT22;7458;49.002;8.472;2022-09-09T07:06:28;22.50;98.60
14735;DHT22;7458;49.002;8.472;2022-09-09T07:08:57;21.90;99.60
14735;DHT22;7458;49.002;8.472;2022-09-09T07:11:27;21.40;99.90
14735;DHT22;7458;49.002;8.472;2022-09-09T07:13:56;21.30;99.90
14735;DHT22;7458;49.002;8.472;2022-09-09T07:16:23;22.50;99.90
14735;DHT22;7458;49.002;8.472;2022-09-09T07:18:50;24.10;98.70
14735;DHT22;7458;49.002;8.472;2022-09-09T07:21:17;25.80;94.50
14735;DHT22;7458;49.002;8.472;2022-09-09T07:23:44;26.00;92.20
14735;DHT22;7458;49.002;8.472;2022-09-09T07:26:11;25.90;90.00
14735;DHT22;7458;49.002;8.472;2022-09-09T07:28:42;25.30;89.30
14735;DHT22;7458;49.002;8.472;2022-09-09T07:31:18;24.50;90.20
14735;DHT22;7458;49.002;8.472;2022-09-09T07:33:46;23.70;91.30
14735;DHT22;7458;49.002;8.472;2022-09-09T07:36:25;23.10;92.30
14735;DHT22;7458;49.002;8.472;2022-09-09T07:38:54;22.60;93.00
14735;DHT22;7458;49.002;8.472;2022-09-09T07:41:24;22.30;94.10
14735;DHT22;7458;49.002;8.472;2022-09-09T07:43:52;22.30;94.70
14735;DHT22;7458;49.002;8.472;2022-09-09T07:46:21;22.20;94.90
14735;DHT22;7458;49.002;8.472;2022-09-09T07:48:54;22.20;96.30
14735;DHT22;7458;49.002;8.472;2022-09-09T07:51:25;22.40;96.30
14735;DHT22;7458;49.002;8.472;2022-09-09T07:53:55;22.60;98.00
14735;DHT22;7458;49.002;8.472;2022-09-09T07:56:26;22.50;97.80
14735;DHT22;7458;49.002;8.472;2022-09-09T07:58:54;22.50;97.00
14735;DHT22;7458;49.002;8.472;2022-09-09T08:01:34;22.40;98.20
14735;DHT22;7458;49.002;8.472;2022-09-09T08:04:07;22.60;98.50
14735;DHT22;7458;49.002;8.472;2022-09-09T08:06:40;23.50;98.50
14735;DHT22;7458;49.002;8.472;2022-09-09T08:09:08;24.20;96.60
14735;DHT22;7458;49.002;8.472;2022-09-09T08:11:35;24.40;94.60
14735;DHT22;7458;49.002;8.472;2022-09-09T08:14:02;24.40;92.00
14735;DHT22;7458;49.002;8.472;2022-09-09T08:16:32;24.60;92.60
14735;DHT22;7458;49.002;8.472;2022-09-09T08:18:59;24.30;90.70
14735;DHT22;7458;49.002;8.472;2022-09-09T08:21:30;24.30;91.40
14735;DHT22;7458;49.002;8.472;2022-09-09T08:23:59;24.40;91.60
14735;DHT22;7458;49.002;8.472;2022-09-09T08:26:41;25.10;90.10
14735;DHT22;7458;49.002;8.472;2022-09-09T08:29:09;25.10;88.70
14735;DHT22;7458;49.002;8.472;2022-09-09T08:31:40;24.60;87.20
14735;DHT22;7458;49.002;8.472;2022-09-09T08:34:10;24.20;88.70
14735;DHT22;7458;49.002;8.472;2022-09-09T08:36:46;23.70;91.10
14735;DHT22;7458;49.002;8.472;2022-09-09T08:39:18;23.30;92.40
14735;DHT22;7458;49.002;8.472;2022-09-09T08:45:12;22.30;95.40
14735;DHT22;7458;49.002;8.472;2022-09-09T08:47:56;21.80;97.40
14735;DHT22;7458;49.002;8.472;2022-09-09T08:50:36;21.30;99.60
14735;DHT22;7458;49.002;8.472;2022-09-09T08:53:15;21.30;99.90
14735;DHT22;7458;49.002;8.472;2022-09-09T08:55:51;21.30;99.90
14735;DHT22;7458;49.002;8.472;2022-09-09T08:58:34;21.70;99.90
14735;DHT22;7458;49.002;8.472;2022-09-09T09:09:12;22.40;99.90
14735;DHT22;7458;49.002;8.472;2022-09-09T09:11:48;22.30;99.90
14735;DHT22;7458;49.002;8.472;2022-09-09T09:14:23;22.00;99.90
14735;DHT22;7458;49.002;8.472;2022-09-09T09:17:05;21.80;99.90
14735;DHT22;7458;49.002;8.472;2022-09-09T09:19:38;21.80;99.90
14735;DHT22;7458;49.002;8.472;2022-09-09T09:28:01;22.00;99.90
14735;DHT22;7458;49.002;8.472;2022-09-09T09:30:47;22.10;99.90
14735;DHT22;7458;49.002;8.472;2022-09-09T09:33:37;22.20;99.90
14735;DHT22;7458;49.002;8.472;2022-09-09T09:36:13;22.30;99.90
14735;DHT22;7458;49.002;8.472;2022-09-09T09:38:57;22.60;99.90
14735;DHT22;7458;49.002;8.472;2022-09-09T09:41:52;22.60;99.90
14735;DHT22;7458;49.002;8.472;2022-09-09T09:44:30;22.90;99.90
14735;DHT22;7458;49.002;8.472;2022-09-09T09:47:26;23.10;99.90
14735;DHT22;7458;49.002;8.472;2022-09-09T09:49:57;23.20;97.50
14735;DHT22;7458;49.002;8.472;2022-09-09T09:52:30;23.10;96.80
14735;DHT22;7458;49.002;8.472;2022-09-09T09:54:58;23.70;95.80
14735;DHT22;7458;49.002;8.472;2022-09-09T09:57:30;24.00;93.70
14735;DHT22;7458;49.002;8.472;2022-09-09T10:02:43;24.50;91.80
14735;DHT22;7458;49.002;8.472;2022-09-09T10:05:19;24.80;91.00
14735;DHT22;7458;49.002;8.472;2022-09-09T10:08:12;25.10;90.30
14735;DHT22;7458;49.002;8.472;2022-09-09T10:22:35;25.30;79.50
14735;DHT22;7458;49.002;8.472;2022-09-09T10:25:43;24.90;79.50
14735;DHT22;7458;49.002;8.472;2022-09-09T10:33:59;24.20;81.40
14735;DHT22;7458;49.002;8.472;2022-09-09T10:36:27;24.30;80.10
14735;DHT22;7458;49.002;8.472;2022-09-09T10:38:57;24.30;80.20
14735;DHT22;7458;49.002;8.472;2022-09-09T10:42:06;24.20;81.00
14735;DHT22;7458;49.002;8.472;2022-09-09T10:56:21;24.30;82.10
14735;DHT22;7458;49.002;8.472;2022-09-09T10:58:54;24.50;80.80
14735;DHT22;7458;49.002;8.472;2022-09-09T11:01:43;24.30;78.80
14735;DHT22;7458;49.002;8.472;2022-09-09T11:04:23;24.20;80.10
14735;DHT22;7458;49.002;8.472;2022-09-09T11:06:56;24.10;80.50
14735;DHT22;7458;49.002;8.472;2022-09-09T11:09:25;23.90;81.00
14735;DHT22;7458;49.002;8.472;2022-09-09T11:11:57;23.70;83.50
14735;DHT22;7458;49.002;8.472;2022-09-09T11:17:42;23.60;81.50
14735;DHT22;7458;49.002;8.472;2022-09-09T11:20:16;24.30;82.50
14735;DHT22;7458;49.002;8.472;2022-09-09T11:25:50;25.20;78.70
14735;DHT22;7458;49.002;8.472;2022-09-09T11:32:00;25.30;76.30
14735;DHT22;7458;49.002;8.472;2022-09-09T11:40:16;24.90;74.80
14735;DHT22;7458;49.002;8.472;2022-09-09T11:42:46;24.70;74.20
14735;DHT22;7458;49.002;8.472;2022-09-09T11:45:24;24.50;74.70
14735;DHT22;7458;49.002;8.472;2022-09-09T11:47:59;24.60;75.80
14735;DHT22;7458;49.002;8.472;2022-09-09T11:53:19;24.30;76.40
14735;DHT22;7458;49.002;8.472;2022-09-09T11:55:48;24.10;77.60
14735;DHT22;7458;49.002;8.472;2022-09-09T11:58:28;23.90;77.00
14735;DHT22;7458;49.002;8.472;2022-09-09T12:00:58;23.80;77.70
14735;DHT22;7458;49.002;8.472;2022-09-09T12:03:44;23.90;78.50
14735;DHT22;7458;49.002;8.472;2022-09-09T12:08:51;24.80;75.80
14735;DHT22;7458;49.002;8.472;2022-09-09T12:11:27;25.00;75.40
14735;DHT22;7458;49.002;8.472;2022-09-09T12:13:57;25.20;74.50
14735;DHT22;7458;49.002;8.472;2022-09-09T12:16:33;25.30;72.60
14735;DHT22;7458;49.002;8.472;2022-09-09T12:19:22;25.10;72.40
14735;DHT22;7458;49.002;8.472;2022-09-09T12:22:06;25.00;72.40
14735;DHT22;7458;49.002;8.472;2022-09-09T12:24:53;25.20;73.20
14735;DHT22;7458;49.002;8.472;2022-09-09T12:27:36;25.30;72.50
14735;DHT22;7458;49.002;8.472;2022-09-09T12:30:15;25.30;70.30
14735;DHT22;7458;49.002;8.472;2022-09-09T12:32:41;25.00;70.50
14735;DHT22;7458;49.002;8.472;2022-09-09T12:37:57;24.60;72.20
14735;DHT22;7458;49.002;8.472;2022-09-09T12:40:32;24.60;71.70
14735;DHT22;7458;49.002;8.472;2022-09-09T12:43:01;24.70;72.70
14735;DHT22;7458;49.002;8.472;2022-09-09T12:45:32;24.70;71.20
14735;DHT22;7458;49.002;8.472;2022-09-09T12:48:09;24.70;69.60
14735;DHT22;7458;49.002;8.472;2022-09-09T12:50:43;24.90;69.50
14735;DHT22;7458;49.002;8.472;2022-09-09T12:53:26;25.10;67.50
14735;DHT22;7458;49.002;8.472;2022-09-09T12:56:08;24.90;67.60
14735;DHT22;7458;49.002;8.472;2022-09-09T12:58:46;24.90;68.10
14735;DHT22;7458;49.002;8.472;2022-09-09T13:01:30;24.50;69.00
14735;DHT22;7458;49.002;8.472;2022-09-09T13:03:57;24.10;80.80
14735;DHT22;7458;49.002;8.472;2022-09-09T13:06:26;23.40;86.70
14735;DHT22;7458;49.002;8.472;2022-09-09T13:08:54;23.10;90.50
14735;DHT22;7458;49.002;8.472;2022-09-09T13:11:30;23.00;92.30
14735;DHT22;7458;49.002;8.472;2022-09-09T13:14:18;23.00;92.70
14735;DHT22;7458;49.002;8.472;2022-09-09T13:16:56;23.00;94.10
14735;DHT22;7458;49.002;8.472;2022-09-09T13:19:24;23.00;94.20
14735;DHT22;7458;49.002;8.472;2022-09-09T13:21:54;22.80;94.00
14735;DHT22;7458;49.002;8.472;2022-09-09T13:24:34;22.70;94.90
14735;DHT22;7458;49.002;8.472;2022-09-09T13:27:05;22.60;96.20
14735;DHT22;7458;49.002;8.472;2022-09-09T13:29:53;22.40;97.30
14735;DHT22;7458;49.002;8.472;2022-09-09T13:32:23;22.30;97.80
14735;DHT22;7458;49.002;8.472;2022-09-09T13:35:00;22.10;99.70
14735;DHT22;7458;49.002;8.472;2022-09-09T13:39:54;22.10;99.90
14735;DHT22;7458;49.002;8.472;2022-09-09T13:42:26;22.30;99.90
14735;DHT22;7458;49.002;8.472;2022-09-09T13:44:55;22.50;99.90
14735;DHT22;7458;49.002;8.472;2022-09-09T13:47:30;22.60;99.90
14735;DHT22;7458;49.002;8.472;2022-09-09T13:50:18;22.70;99.90
14735;DHT22;7458;49.002;8.472;2022-09-09T13:52:49;22.60;99.90
14735;DHT22;7458;49.002;8.472;2022-09-09T13:55:22;22.60;99.90
14735;DHT22;7458;49.002;8.472;2022-09-09T13:58:01;22.60;99.90
14735;DHT22;7458;49.002;8.472;2022-09-09T14:00:33;22.60;99.90
14735;DHT22;7458;49.002;8.472;2022-09-09T14:03:00;22.70;99.90
14735;DHT22;7458;49.002;8.472;2022-09-09T14:05:27;22.80;99.90
14735;DHT22;7458;49.002;8.472;2022-09-09T14:07:56;22.80;99.90
14735;DHT22;7458;49.002;8.472;2022-09-09T14:10:23;22.70;98.80
14735;DHT22;7458;49.002;8.472;2022-09-09T14:12:48;22.70;99.50
14735;DHT22;7458;49.002;8.472;2022-09-09T14:15:14;22.80;99.60
14735;DHT22;7458;49.002;8.472;2022-09-09T14:17:40;22.70;99.00
14735;DHT22;7458;49.002;8.472;2022-09-09T14:20:07;22.50;99.90
14735;DHT22;7458;49.002;8.472;2022-09-09T14:22:34;22.50;99.90
14735;DHT22;7458;49.002;8.472;2022-09-09T14:25:02;22.50;99.90
14735;DHT22;7458;49.002;8.472;2022-09-09T14:27:28;22.40;99.90
14735;DHT22;7458;49.002;8.472;2022-09-09T14:29:55;22.20;99.90
14735;DHT22;7458;49.002;8.472;2022-09-09T14:32:21;22.20;99.90
14735;DHT22;7458;49.002;8.472;2022-09-09T14:34:47;22.20;99.90
14735;DHT22;7458;49.002;8.472;2022-09-09T14:37:17;21.90;99.90
14735;DHT22;7458;49.002;8.472;2022-09-09T14:39:44;21.90;99.90
14735;DHT22;7458;49.002;8.472;2022-09-09T14:42:10;21.90;99.90
14735;DHT22;7458;49.002;8.472;2022-09-09T14:44:39;21.60;99.90
14735;DHT22;7458;49.002;8.472;2022-09-09T14:47:06;21.40;99.90
14735;DHT22;7458;49.002;8.472;2022-09-09T14:49:36;21.30;99.90
14735;DHT22;7458;49.002;8.472;2022-09-09T14:52:04;21.30;99.90
14735;DHT22;7458;49.002;8.472;2022-09-09T14:54:30;21.20;99.90
14735;DHT22;7458;49.002;8.472;2022-09-09T14:56:57;21.20;99.90
14735;DHT22;7458;49.002;8.472;2022-09-09T14:59:24;21.10;99.90
14735;DHT22;7458;49.002;8.472;2022-09-09T15:01:50;21.00;99.90
14735;DHT22;7458;49.002;8.472;2022-09-09T15:04:16;20.80;99.90
14735;DHT22;7458;49.002;8.472;2022-09-09T15:06:42;20.50;99.90
14735;DHT22;7458;49.002;8.472;2022-09-09T15:09:12;20.10;99.90
14735;DHT22;7458;49.002;8.472;2022-09-09T15:11:38;19.70;99.90
14735;DHT22;7458;49.002;8.472;2022-09-09T15:14:05;19.50;99.90
14735;DHT22;7458;49.002;8.472;2022-09-09T15:16:33;19.30;99.90
14735;DHT22;7458;49.002;8.472;2022-09-09T15:19:00;19.20;99.90
14735;DHT22;7458;49.002;8.472;2022-09-09T15:21:30;19.20;99.90
14735;DHT22;7458;49.002;8.472;2022-09-09T15:23:57;19.20;99.90
14735;DHT22;7458;49.002;8.472;2022-09-09T15:26:24;19.30;99.90
14735;DHT22;7458;49.002;8.472;2022-09-09T15:28:51;19.30;99.90
14735;DHT22;7458;49.002;8.472;2022-09-09T15:31:19;19.40;99.90
14735;DHT22;7458;49.002;8.472;2022-09-09T15:33:57;19.40;99.90
14735;DHT22;7458;49.002;8.472;2022-09-09T15:36:42;19.60;99.90
14735;DHT22;7458;49.002;8.472;2022-09-09T15:39:10;19.60;99.90
14735;DHT22;7458;49.002;8.472;2022-09-09T15:41:39;19.60;99.90
14735;DHT22;7458;49.002;8.472;2022-09-09T15:44:05;19.70;99.90
14735;DHT22;7458;49.002;8.472;2022-09-09T15:46:34;19.60;99.90
14735;DHT22;7458;49.002;8.472;2022-09-09T15:49:05;19.60;99.90
14735;DHT22;7458;49.002;8.472;2022-09-09T15:51:38;19.40;99.90
14735;DHT22;7458;49.002;8.472;2022-09-09T15:54:09;19.40;99.90
14735;DHT22;7458;49.002;8.472;2022-09-09T15:56:52;19.50;99.90
14735;DHT22;7458;49.002;8.472;2022-09-09T15:59:24;19.40;99.90
14735;DHT22;7458;49.002;8.472;2022-09-09T16:01:53;19.10;99.90
14735;DHT22;7458;49.002;8.472;2022-09-09T16:04:21;19.10;99.90
14735;DHT22;7458;49.002;8.472;2022-09-09T16:06:53;18.90;99.90
14735;DHT22;7458;49.002;8.472;2022-09-09T16:09:21;18.80;99.90
14735;DHT22;7458;49.002;8.472;2022-09-09T16:11:47;18.90;99.90
14735;DHT22;7458;49.002;8.472;2022-09-09T16:14:14;18.80;99.90
14735;DHT22;7458;49.002;8.472;2022-09-09T16:16:41;18.70;99.90
14735;DHT22;7458;49.002;8.472;2022-09-09T16:19:10;18.70;99.90
14735;DHT22;7458;49.002;8.472;2022-09-09T16:21:45;18.60;99.90
14735;DHT22;7458;49.002;8.472;2022-09-09T16:24:14;18.70;99.90
14735;DHT22;7458;49.002;8.472;2022-09-09T16:26:45;18.70;99.90
14735;DHT22;7458;49.002;8.472;2022-09-09T16:29:14;18.70;99.90
14735;DHT22;7458;49.002;8.472;2022-09-09T16:31:42;18.70;99.90
14735;DHT22;7458;49.002;8.472;2022-09-09T16:34:09;18.70;99.90
14735;DHT22;7458;49.002;8.472;2022-09-09T16:36:37;18.60;99.90
14735;DHT22;7458;49.002;8.472;2022-09-09T16:39:11;18.60;99.90
14735;DHT22;7458;49.002;8.472;2022-09-09T16:41:39;18.40;99.90
14735;DHT22;7458;49.002;8.472;2022-09-09T16:44:08;18.40;99.90
14735;DHT22;7458;49.002;8.472;2022-09-09T16:46:38;18.40;99.90
14735;DHT22;7458;49.002;8.472;2022-09-09T16:49:07;18.20;99.90
14735;DHT22;7458;49.002;8.472;2022-09-09T16:51:40;18.30;99.90
14735;DHT22;7458;49.002;8.472;2022-09-09T16:54:09;18.30;99.90
14735;DHT22;7458;49.002;8.472;2022-09-09T16:56:38;18.40;99.90
14735;DHT22;7458;49.002;8.472;2022-09-09T16:59:13;18.40;99.90
14735;DHT22;7458;49.002;8.472;2022-09-09T17:01:42;18.50;99.90
14735;DHT22;7458;49.002;8.472;2022-09-09T17:04:12;18.50;99.90
14735;DHT22;7458;49.002;8.472;2022-09-09T17:06:41;18.60;99.90
14735;DHT22;7458;49.002;8.472;2022-09-09T17:09:11;18.70;99.90
14735;DHT22;7458;49.002;8.472;2022-09-09T17:11:38;18.60;99.90
14735;DHT22;7458;49.002;8.472;2022-09-09T17:14:07;18.60;99.90
14735;DHT22;7458;49.002;8.472;2022-09-09T17:16:35;18.70;99.90
14735;DHT22;7458;49.002;8.472;2022-09-09T17:19:02;18.60;99.90
14735;DHT22;7458;49.002;8.472;2022-09-09T17:21:30;18.70;99.90
14735;DHT22;7458;49.002;8.472;2022-09-09T17:23:57;18.60;99.90
14735;DHT22;7458;49.002;8.472;2022-09-09T17:26:27;18.50;99.90
14735;DHT22;7458;49.002;8.472;2022-09-09T17:28:56;18.40;99.90
14735;DHT22;7458;49.002;8.472;2022-09-09T17:31:24;18.30;99.90
14735;DHT22;7458;49.002;8.472;2022-09-09T17:33:51;18.30;99.90
14735;DHT22;7458;49.002;8.472;2022-09-09T17:36:25;18.30;99.90
14735;DHT22;7458;49.002;8.472;2022-09-09T17:38:53;18.30;99.90
14735;DHT22;7458;49.002;8.472;2022-09-09T17:41:20;18.50;99.90
14735;DHT22;7458;49.002;8.472;2022-09-09T17:43:51;18.80;99.90
14735;DHT22;7458;49.002;8.472;2022-09-09T17:46:28;19.00;99.90
14735;DHT22;7458;49.002;8.472;2022-09-09T17:48:59;19.10;99.90
14735;DHT22;7458;49.002;8.472;2022-09-09T17:51:28;19.20;99.90
14735;DHT22;7458;49.002;8.472;2022-09-09T17:53:58;19.30;99.90
14735;DHT22;7458;49.002;8.472;2022-09-09T17:56:30;19.20;99.90
14735;DHT22;7458;49.002;8.472;2022-09-09T17:58:59;19.20;99.90
14735;DHT22;7458;49.002;8.472;2022-09-09T18:01:28;19.10;99.90
14735;DHT22;7458;49.002;8.472;2022-09-09T18:03:58;19.20;99.90
14735;DHT22;7458;49.002;8.472;2022-09-09T18:06:28;19.10;99.90